createdAt,value
2019-03-25T00:02:26.259Z,74.40
2019-03-25T00:04:59.315Z,73.83
2019-03-25T00:07:33.855Z,73.81
2019-03-25T00:10:08.311Z,74.00
2019-03-25T00:12:41.374Z,73.82
2019-03-25T00:15:14.302Z,74.35
2019-03-25T00:17:47.210Z,74.46
2019-03-25T00:20:21.956Z,73.45
2019-03-25T00:22:55.194Z,73.90
2019-03-25T00:25:29.604Z,73.45
2019-03-25T00:28:03.448Z,73.15
2019-03-25T00:30:35.210Z,73.43
2019-03-25T00:33:08.235Z,73.44
2019-03-25T00:35:41.324Z,73.69
2019-03-25T00:38:15.719Z,73.60
2019-03-25T00:40:50.258Z,73.58
2019-03-25T00:43:23.224Z,73.31
2019-03-25T00:45:57.313Z,74.09
2019-03-25T00:48:29.077Z,74.48
2019-03-25T00:51:02.166Z,74.20
2019-03-25T00:53:35.420Z,74.95
2019-03-25T00:56:08.742Z,77.29
2019-03-25T00:58:41.247Z,76.29
2019-03-25T01:01:14.984Z,75.83
2019-03-25T01:03:47.394Z,75.56
2019-03-25T01:06:20.407Z,75.84
2019-03-25T01:08:53.388Z,75.92
2019-03-25T01:11:26.344Z,76.29
2019-03-25T01:13:58.538Z,76.01
2019-03-25T01:16:31.526Z,76.51
2019-03-25T01:19:05.690Z,76.00
2019-03-25T01:21:38.801Z,76.29
2019-03-25T01:24:11.773Z,75.81
2019-03-25T01:26:44.473Z,74.80
2019-03-25T01:29:16.433Z,75.58
2019-03-25T01:31:49.364Z,73.53
2019-03-25T01:34:22.577Z,72.72
2019-03-25T01:36:56.604Z,72.65
2019-03-25T01:39:28.440Z,72.42
2019-03-25T01:42:02.583Z,72.09
2019-03-25T01:44:35.537Z,71.80
2019-03-25T01:47:08.473Z,71.57
2019-03-25T01:49:42.020Z,71.42
2019-03-25T01:52:15.549Z,71.64
2019-03-25T01:54:49.691Z,72.28
2019-03-25T01:57:22.413Z,72.89
2019-03-25T01:59:57.823Z,72.66
2019-03-25T02:02:31.622Z,71.22
2019-03-25T02:05:06.114Z,71.04
2019-03-25T02:07:43.539Z,71.89
2019-03-25T02:10:17.063Z,71.73
2019-03-25T02:12:49.505Z,71.85
2019-03-25T02:15:22.601Z,71.52
2019-03-25T02:17:55.764Z,71.85
2019-03-25T02:20:29.862Z,71.21
2019-03-25T02:23:04.064Z,70.10
2019-03-25T02:25:37.820Z,71.05
2019-03-25T02:28:11.803Z,70.96
2019-03-25T02:30:45.404Z,71.68
2019-03-25T02:33:17.189Z,70.54
2019-03-25T02:35:50.861Z,70.06
2019-03-25T02:38:23.793Z,71.00
2019-03-25T02:41:01.642Z,72.01
2019-03-25T02:43:34.771Z,70.87
2019-03-25T02:46:08.801Z,71.30
2019-03-25T02:48:40.756Z,71.04
2019-03-25T02:51:13.115Z,70.26
2019-03-25T02:53:45.047Z,70.25
2019-03-25T02:56:16.895Z,70.05
2019-03-25T02:58:50.773Z,69.82
2019-03-25T03:01:24.770Z,69.01
2019-03-25T03:03:57.762Z,69.33
2019-03-25T03:06:31.922Z,69.09
2019-03-25T03:09:04.959Z,68.72
2019-03-25T03:11:39.861Z,69.50
2019-03-25T03:14:15.065Z,69.50
2019-03-25T03:16:46.751Z,68.97
2019-03-25T03:19:19.822Z,67.52
2019-03-25T03:21:53.046Z,68.30
2019-03-25T03:24:28.228Z,69.08
2019-03-25T03:27:02.951Z,69.59
2019-03-25T03:29:34.941Z,68.94
2019-03-25T03:32:09.984Z,69.17
2019-03-25T03:34:44.545Z,69.18
2019-03-25T03:37:17.494Z,69.42
2019-03-25T03:39:50.656Z,69.60
2019-03-25T03:42:25.243Z,68.63
2019-03-25T03:44:57.446Z,68.97
2019-03-25T03:47:29.509Z,69.91
2019-03-25T03:50:01.832Z,69.98
2019-03-25T03:52:36.280Z,69.77
2019-03-25T03:55:09.036Z,69.47
2019-03-25T03:57:43.351Z,69.24
2019-03-25T04:00:23.706Z,69.53
2019-03-25T04:02:57.589Z,70.31
2019-03-25T04:05:29.403Z,70.99
2019-03-25T04:08:03.327Z,70.35
2019-03-25T04:10:35.629Z,69.92
2019-03-25T04:13:08.540Z,70.88
2019-03-25T04:15:41.636Z,71.24
2019-03-25T04:18:15.638Z,71.41
2019-03-25T04:20:47.457Z,71.86
2019-03-25T04:23:20.555Z,71.66
2019-03-25T04:25:55.998Z,71.79
2019-03-25T04:28:30.468Z,70.98
2019-03-25T04:31:03.728Z,70.66
2019-03-25T04:33:35.547Z,69.57
2019-03-25T04:36:08.600Z,69.89
2019-03-25T04:38:41.646Z,70.03
2019-03-25T04:41:14.681Z,70.54
2019-03-25T04:43:54.639Z,70.34
2019-03-25T04:46:26.960Z,70.12
2019-03-25T04:49:00.907Z,70.56
2019-03-25T04:51:35.537Z,70.55
2019-03-25T04:54:09.017Z,70.69
2019-03-25T04:56:41.673Z,70.53
2019-03-25T04:59:15.664Z,70.70
2019-03-25T05:01:48.126Z,71.26
2019-03-25T05:04:20.930Z,70.63
2019-03-25T05:06:57.225Z,70.23
2019-03-25T05:09:30.170Z,70.45
2019-03-25T05:12:03.558Z,69.16
2019-03-25T05:14:55.910Z,69.29
2019-03-25T05:17:29.797Z,69.71
2019-03-25T05:20:02.720Z,69.59
2019-03-25T05:22:34.807Z,69.70
2019-03-25T05:25:37.888Z,69.58
2019-03-25T05:28:09.969Z,70.44
2019-03-25T05:30:41.759Z,69.72
2019-03-25T05:33:14.719Z,70.01
2019-03-25T05:35:47.018Z,70.86
2019-03-25T05:38:22.158Z,70.17
2019-03-25T05:40:53.897Z,70.40
2019-03-25T05:43:26.321Z,69.93
2019-03-25T05:45:58.842Z,70.12
2019-03-25T05:48:33.236Z,70.80
2019-03-25T05:51:06.841Z,70.63
2019-03-25T05:53:41.666Z,71.45
2019-03-25T05:56:14.868Z,70.93
2019-03-25T05:58:47.020Z,71.48
2019-03-25T06:01:20.908Z,73.14
2019-03-25T06:03:54.050Z,73.00
2019-03-25T06:06:25.948Z,73.67
2019-03-25T06:08:57.713Z,73.75
2019-03-25T06:11:31.970Z,74.47
2019-03-25T06:14:04.917Z,75.15
2019-03-25T06:16:40.268Z,75.13
2019-03-25T06:19:13.972Z,75.07
2019-03-25T06:21:48.005Z,76.21
2019-03-25T06:24:20.172Z,75.23
2019-03-25T06:26:51.974Z,76.65
2019-03-25T06:29:26.141Z,77.50
2019-03-25T06:31:59.436Z,76.95
2019-03-25T06:34:32.214Z,76.59
2019-03-25T06:37:06.239Z,75.75
2019-03-25T06:39:38.189Z,75.92
2019-03-25T06:42:12.245Z,76.84
2019-03-25T06:44:45.870Z,76.12
2019-03-25T06:47:19.295Z,75.88
2019-03-25T06:49:54.894Z,76.17
2019-03-25T06:52:30.103Z,73.99
2019-03-25T06:55:02.572Z,74.74
2019-03-25T06:57:35.476Z,73.15
2019-03-25T07:00:12.913Z,75.08
2019-03-25T07:02:50.060Z,75.74
2019-03-25T07:05:25.050Z,75.23
2019-03-25T07:07:59.633Z,75.54
2019-03-25T07:10:34.921Z,75.84
2019-03-25T07:13:08.191Z,76.08
2019-03-25T07:15:41.297Z,74.44
2019-03-25T07:18:14.478Z,74.53
2019-03-25T07:20:48.204Z,75.22
2019-03-25T07:23:20.241Z,75.77
2019-03-25T07:25:54.128Z,76.33
2019-03-25T07:28:27.312Z,76.39
2019-03-25T07:31:02.368Z,75.71
2019-03-25T07:33:35.286Z,76.38
2019-03-25T07:36:07.650Z,75.24
2019-03-25T07:38:41.496Z,74.56
2019-03-25T07:41:16.998Z,74.36
2019-03-25T07:43:50.928Z,74.18
2019-03-25T07:46:23.317Z,77.19
2019-03-25T07:48:56.532Z,77.58
2019-03-25T07:51:31.165Z,76.00
2019-03-25T07:57:29.310Z,75.70
2019-03-25T08:00:13.177Z,76.13
2019-03-25T08:02:40.472Z,75.54
2019-03-25T08:05:12.993Z,76.51
2019-03-25T08:07:49.017Z,75.11
2019-03-25T08:10:36.813Z,75.92
2019-03-25T08:13:12.311Z,75.16
2019-03-25T08:15:46.582Z,75.57
2019-03-25T08:18:20.649Z,74.29
2019-03-25T08:20:52.646Z,74.53
2019-03-25T08:23:27.273Z,74.85
2019-03-25T08:25:59.521Z,75.31
2019-03-25T08:28:32.737Z,75.37
2019-03-25T08:31:06.602Z,77.12
2019-03-25T08:33:38.536Z,77.63
2019-03-25T08:36:14.387Z,78.06
2019-03-25T08:38:49.383Z,78.29
2019-03-25T08:41:23.606Z,76.60
2019-03-25T08:43:57.641Z,78.07
2019-03-25T08:46:29.878Z,77.56
2019-03-25T08:49:03.684Z,77.02
2019-03-25T08:51:37.309Z,77.03
2019-03-25T08:54:11.689Z,77.69
2019-03-25T08:56:46.198Z,77.90
2019-03-25T08:59:18.008Z,77.15
2019-03-25T09:01:50.930Z,77.83
2019-03-25T09:04:23.773Z,77.59
2019-03-25T09:06:57.864Z,77.16
2019-03-25T09:09:31.792Z,77.35
2019-03-25T09:12:05.698Z,76.71
2019-03-25T09:14:38.714Z,77.43
2019-03-25T09:17:11.342Z,75.69
2019-03-25T09:19:44.858Z,76.86
2019-03-25T09:22:17.645Z,75.13
2019-03-25T09:24:50.828Z,75.16
2019-03-25T09:27:23.849Z,74.55
2019-03-25T09:29:57.845Z,74.42
2019-03-25T09:32:31.684Z,75.00
2019-03-25T09:35:06.134Z,74.01
2019-03-25T09:37:41.544Z,74.77
2019-03-25T09:40:16.056Z,75.36
2019-03-25T09:42:49.216Z,74.78
2019-03-25T09:45:22.614Z,71.58
2019-03-25T09:47:56.986Z,72.74
2019-03-25T09:50:29.956Z,71.40
2019-03-25T09:53:02.322Z,70.63
2019-03-25T09:55:35.866Z,67.89
2019-03-25T09:58:09.041Z,65.43
2019-03-25T10:00:42.085Z,64.25
2019-03-25T10:03:15.083Z,62.35
2019-03-25T10:05:49.629Z,62.33
2019-03-25T10:08:22.125Z,59.68
2019-03-25T10:10:54.301Z,58.76
2019-03-25T10:13:28.086Z,59.36
2019-03-25T10:16:00.089Z,60.71
2019-03-25T10:18:32.905Z,61.22
2019-03-25T10:21:06.070Z,60.06
2019-03-25T10:23:59.882Z,59.42
2019-03-25T10:26:32.023Z,60.20
2019-03-25T10:29:06.066Z,58.92
2019-03-25T10:31:39.661Z,59.59
2019-03-25T10:34:12.116Z,58.60
2019-03-25T10:36:45.254Z,59.38
2019-03-25T10:39:17.262Z,58.66
2019-03-25T10:41:51.240Z,52.76
2019-03-25T10:44:25.672Z,53.43
2019-03-25T10:47:00.090Z,53.00
2019-03-25T10:49:33.284Z,51.94
2019-03-25T10:52:06.247Z,50.48
2019-03-25T10:54:38.135Z,50.30
2019-03-25T10:57:11.353Z,49.66
2019-03-25T10:59:45.108Z,50.89
2019-03-25T11:02:18.102Z,48.86
2019-03-25T11:04:50.495Z,44.68
2019-03-25T11:07:23.389Z,45.02
2019-03-25T11:09:57.321Z,42.01
2019-03-25T11:12:30.381Z,43.21
2019-03-25T11:15:03.470Z,40.28
2019-03-25T11:17:37.745Z,40.20
2019-03-25T11:20:13.162Z,37.64
2019-03-25T11:22:50.955Z,38.22
2019-03-25T11:25:23.641Z,39.89
2019-03-25T11:27:58.129Z,40.76
2019-03-25T11:31:01.074Z,38.82
2019-03-25T11:33:35.852Z,41.03
2019-03-25T11:36:12.658Z,42.08
2019-03-25T11:38:49.025Z,42.64
2019-03-25T11:41:25.056Z,42.14
2019-03-25T11:43:57.330Z,40.15
2019-03-25T11:46:31.383Z,40.66
2019-03-25T11:49:07.185Z,38.22
2019-03-25T11:51:41.370Z,35.98
2019-03-25T11:54:15.378Z,37.02
2019-03-25T11:56:49.417Z,36.20
2019-03-25T11:59:23.366Z,36.35
2019-03-25T12:01:57.049Z,37.26
2019-03-25T12:04:29.585Z,36.91
2019-03-25T12:07:02.773Z,37.44
2019-03-25T12:09:35.581Z,38.37
2019-03-25T12:12:09.251Z,39.98
2019-03-25T12:14:41.528Z,38.35
2019-03-25T12:17:15.542Z,38.02
2019-03-25T12:19:49.239Z,38.48
2019-03-25T12:22:23.582Z,37.59
2019-03-25T12:24:55.756Z,39.09
2019-03-25T12:27:29.849Z,38.41
2019-03-25T12:30:02.754Z,37.03
2019-03-25T12:32:37.282Z,39.14
2019-03-25T12:35:14.226Z,39.34
2019-03-25T12:37:49.433Z,37.73
2019-03-25T12:40:23.745Z,38.10
2019-03-25T12:42:58.003Z,36.35
2019-03-25T12:45:32.572Z,37.11
2019-03-25T12:51:30.159Z,35.01
2019-03-25T12:54:04.793Z,34.37
2019-03-25T12:56:38.871Z,35.25
2019-03-25T12:59:12.819Z,34.25
2019-03-25T13:01:52.844Z,34.30
2019-03-25T13:04:21.342Z,33.19
2019-03-25T13:07:14.550Z,34.52
2019-03-25T13:09:46.910Z,34.03
2019-03-25T13:12:21.867Z,35.57
2019-03-25T13:14:55.762Z,33.76
2019-03-25T13:17:29.794Z,34.52
2019-03-25T13:20:03.797Z,33.55
2019-03-25T13:22:39.514Z,35.00
2019-03-25T13:25:16.346Z,34.38
2019-03-25T13:27:50.593Z,35.25
2019-03-25T13:30:24.936Z,36.28
2019-03-25T13:32:58.868Z,37.32
2019-03-25T13:35:30.958Z,37.00
2019-03-25T13:38:02.938Z,36.89
2019-03-25T13:40:36.942Z,36.59
2019-03-25T13:43:08.922Z,36.04
2019-03-25T13:45:41.871Z,38.40
2019-03-25T13:48:15.857Z,38.68
2019-03-25T13:50:49.060Z,39.30
2019-03-25T13:53:20.936Z,38.87
2019-03-25T13:55:54.361Z,39.84
2019-03-25T13:58:26.907Z,39.49
2019-03-25T14:00:59.930Z,39.94
2019-03-25T14:03:33.118Z,39.16
2019-03-25T14:06:07.885Z,39.76
2019-03-25T14:08:42.194Z,40.38
2019-03-25T14:11:15.160Z,41.73
2019-03-25T14:13:49.481Z,41.23
2019-03-25T14:16:21.509Z,41.35
2019-03-25T14:18:54.317Z,40.69
2019-03-25T14:21:27.144Z,41.93
2019-03-25T14:24:00.135Z,42.44
2019-03-25T14:26:34.916Z,41.06
2019-03-25T14:29:10.833Z,39.78
2019-03-25T14:31:45.137Z,39.29
2019-03-25T14:34:17.563Z,39.54
2019-03-25T14:36:49.698Z,41.32
2019-03-25T14:39:25.797Z,42.41
2019-03-25T14:41:59.140Z,40.86
2019-03-25T14:44:33.484Z,41.26
2019-03-25T14:47:06.313Z,42.07
2019-03-25T14:49:39.476Z,43.86
2019-03-25T14:52:12.222Z,43.77
2019-03-25T14:54:45.213Z,43.22
2019-03-25T14:57:17.373Z,43.78
2019-03-25T14:59:50.684Z,43.70
2019-03-25T15:02:27.335Z,43.24
2019-03-25T15:05:01.203Z,43.23
2019-03-25T15:07:35.496Z,43.32
2019-03-25T15:10:10.139Z,43.49
2019-03-25T15:12:46.000Z,44.18
2019-03-25T15:15:20.296Z,43.43
2019-03-25T15:17:55.922Z,43.69
2019-03-25T15:20:28.426Z,43.73
2019-03-25T15:23:02.562Z,42.70
2019-03-25T15:25:36.413Z,42.02
2019-03-25T15:28:09.603Z,43.55
2019-03-25T15:30:42.753Z,47.95
2019-03-25T15:33:15.367Z,48.53
2019-03-25T15:35:49.511Z,48.95
2019-03-25T15:38:21.717Z,49.79
2019-03-25T15:40:54.556Z,50.55
2019-03-25T15:43:28.893Z,50.84
2019-03-25T15:46:04.255Z,50.78
2019-03-25T15:48:36.551Z,51.65
2019-03-25T15:51:11.257Z,52.75
2019-03-25T15:53:46.836Z,52.40
2019-03-25T15:56:18.623Z,48.79
2019-03-25T15:58:51.690Z,49.46
2019-03-25T16:01:23.597Z,47.88
2019-03-25T16:03:57.658Z,48.52
2019-03-25T16:06:31.519Z,48.22
2019-03-25T16:09:04.702Z,47.62
2019-03-25T16:11:39.576Z,48.66
2019-03-25T16:14:14.432Z,49.00
2019-03-25T16:16:48.598Z,49.56
2019-03-25T16:19:22.512Z,50.09
2019-03-25T16:21:55.672Z,50.96
2019-03-25T16:24:27.809Z,51.00
2019-03-25T16:27:00.761Z,52.09
2019-03-25T16:29:33.728Z,51.54
2019-03-25T16:32:06.728Z,52.11
2019-03-25T16:34:38.805Z,52.39
2019-03-25T16:37:10.610Z,52.63
2019-03-25T16:39:42.675Z,52.36
2019-03-25T16:42:14.431Z,51.62
2019-03-25T16:44:46.207Z,51.91
2019-03-25T16:47:18.045Z,52.17
2019-03-25T16:49:50.784Z,52.90
2019-03-25T16:52:24.809Z,53.93
2019-03-25T16:54:56.796Z,53.67
2019-03-25T16:57:29.843Z,54.19
2019-03-25T17:00:01.971Z,54.74
2019-03-25T17:02:34.488Z,55.01
2019-03-25T17:05:10.676Z,54.76
2019-03-25T17:07:45.907Z,54.88
2019-03-25T17:10:18.196Z,55.98
2019-03-25T17:12:52.303Z,55.59
2019-03-25T17:15:27.660Z,55.30
2019-03-25T17:18:04.023Z,56.22
2019-03-25T17:20:37.972Z,55.51
2019-03-25T17:23:09.810Z,56.45
2019-03-25T17:25:52.866Z,56.90
2019-03-25T17:28:18.841Z,57.10
2019-03-25T17:30:54.704Z,57.05
2019-03-25T17:33:28.794Z,57.12
2019-03-25T17:36:02.638Z,56.90
2019-03-25T17:38:36.206Z,57.62
2019-03-25T17:41:09.140Z,58.12
2019-03-25T17:43:41.285Z,59.00
2019-03-25T17:46:14.633Z,57.89
2019-03-25T17:48:48.854Z,59.17
2019-03-25T17:51:21.164Z,59.13
2019-03-25T17:53:54.967Z,59.04
2019-03-25T17:56:27.105Z,59.67
2019-03-25T17:58:59.718Z,59.77
2019-03-25T18:01:35.651Z,59.38
2019-03-25T18:04:09.073Z,59.51
2019-03-25T18:06:45.001Z,59.65
2019-03-25T18:09:18.657Z,59.92
2019-03-25T18:11:51.164Z,59.59
2019-03-25T18:14:24.100Z,59.72
2019-03-25T18:16:57.216Z,60.39
2019-03-25T18:19:30.117Z,61.13
2019-03-25T18:22:03.264Z,61.25
2019-03-25T18:24:36.117Z,60.35
2019-03-25T18:27:09.675Z,60.43
2019-03-25T18:29:43.340Z,60.39
2019-03-25T18:32:17.189Z,60.24
2019-03-25T18:34:50.125Z,60.37
2019-03-25T18:37:24.312Z,60.45
2019-03-25T18:39:59.906Z,60.13
2019-03-25T18:42:33.353Z,60.41
2019-03-25T18:45:07.824Z,60.56
2019-03-25T18:47:45.085Z,60.71
2019-03-25T18:50:18.453Z,61.46
2019-03-25T18:52:51.451Z,61.16
2019-03-25T18:55:24.229Z,62.04
2019-03-25T18:57:57.820Z,62.58
2019-03-25T19:00:34.049Z,62.47
2019-03-25T19:03:06.674Z,61.80
2019-03-25T19:05:39.983Z,62.20
2019-03-25T19:08:14.619Z,62.37
2019-03-25T19:10:48.357Z,62.40
2019-03-25T19:13:21.342Z,62.04
2019-03-25T19:15:55.255Z,62.11
2019-03-25T19:18:29.119Z,62.16
2019-03-25T19:21:03.434Z,62.78
2019-03-25T19:23:36.587Z,63.05
2019-03-25T19:26:10.602Z,62.93
2019-03-25T19:28:43.269Z,62.85
2019-03-25T19:31:16.599Z,63.34
2019-03-25T19:33:49.958Z,63.96
2019-03-25T19:36:24.630Z,63.54
2019-03-25T19:38:57.571Z,64.05
2019-03-25T19:41:32.603Z,63.48
2019-03-25T19:44:05.517Z,63.41
2019-03-25T19:46:39.529Z,63.01
2019-03-25T19:49:11.765Z,63.56
2019-03-25T19:51:46.535Z,63.63
2019-03-25T19:54:18.422Z,64.16
2019-03-25T19:56:51.481Z,65.02
2019-03-25T19:59:24.933Z,65.45
2019-03-25T20:01:58.710Z,65.68
2019-03-25T20:04:31.147Z,65.66
2019-03-25T20:07:04.547Z,65.72
2019-03-25T20:09:37.870Z,65.75
2019-03-25T20:12:12.710Z,66.10
2019-03-25T20:14:46.239Z,66.10
2019-03-25T20:17:18.208Z,65.68
2019-03-25T20:19:52.185Z,66.12
2019-03-25T20:22:24.709Z,66.25
2019-03-25T20:24:57.832Z,66.43
2019-03-25T20:27:30.392Z,66.09
2019-03-25T20:30:04.408Z,66.20
2019-03-25T20:32:37.734Z,66.72
2019-03-25T20:35:11.097Z,66.89
2019-03-25T20:37:47.382Z,67.04
2019-03-25T20:40:21.865Z,67.23
2019-03-25T20:42:53.914Z,66.55
2019-03-25T20:45:26.057Z,67.16
2019-03-25T20:47:59.768Z,67.71
2019-03-25T20:50:33.980Z,67.41
2019-03-25T20:53:07.358Z,66.97
2019-03-25T20:55:40.391Z,67.96
2019-03-25T20:58:12.981Z,66.86
2019-03-25T21:00:51.054Z,66.94
2019-03-25T21:03:25.188Z,67.05
2019-03-25T21:05:57.964Z,67.34
2019-03-25T21:08:30.992Z,67.01
2019-03-25T21:11:04.269Z,66.68
2019-03-25T21:13:38.501Z,66.81
2019-03-25T21:16:11.952Z,67.15
2019-03-25T21:18:46.032Z,66.28
2019-03-25T21:21:19.685Z,66.42
2019-03-25T21:23:51.929Z,64.73
2019-03-25T21:26:25.057Z,65.63
2019-03-25T21:28:57.885Z,65.46
2019-03-25T21:31:30.221Z,64.99
2019-03-25T21:37:29.408Z,64.47
2019-03-25T21:40:04.469Z,64.12
2019-03-25T21:42:37.060Z,64.67
2019-03-25T21:45:11.190Z,64.46
2019-03-25T21:47:44.757Z,63.92
2019-03-25T21:50:18.354Z,63.98
2019-03-25T21:52:50.538Z,63.56
2019-03-25T21:55:26.843Z,62.55
2019-03-25T21:58:01.265Z,63.23
2019-03-25T22:00:34.174Z,62.49
2019-03-25T22:03:12.124Z,63.17
2019-03-25T22:05:43.597Z,62.39
2019-03-25T22:08:16.126Z,62.59
2019-03-25T22:10:49.323Z,63.25
2019-03-25T22:13:21.182Z,63.63
2019-03-25T22:15:55.152Z,63.63
2019-03-25T22:18:30.665Z,63.62
2019-03-25T22:21:05.929Z,63.76
2019-03-25T22:23:59.960Z,63.41
2019-03-25T22:26:34.576Z,63.72
2019-03-25T22:29:07.922Z,63.57
2019-03-25T22:31:52.758Z,61.97
2019-03-25T22:34:28.287Z,62.25
2019-03-25T22:37:02.522Z,61.99
2019-03-25T22:39:34.316Z,62.56
2019-03-25T22:42:07.144Z,60.69
2019-03-25T22:44:41.296Z,61.04
2019-03-25T22:47:13.177Z,61.65
2019-03-25T22:49:45.646Z,61.78
2019-03-25T22:52:20.138Z,61.67
2019-03-25T22:54:52.413Z,61.90
2019-03-25T22:57:24.257Z,61.25
2019-03-25T22:59:57.803Z,60.08
2019-03-25T23:02:31.268Z,60.94
2019-03-25T23:05:09.897Z,61.32
2019-03-25T23:07:44.061Z,61.16
2019-03-25T23:10:16.455Z,60.85
2019-03-25T23:12:48.422Z,61.04
2019-03-25T23:15:22.062Z,59.96
2019-03-25T23:17:54.424Z,60.34
2019-03-25T23:20:28.433Z,60.81
2019-03-25T23:23:01.676Z,60.60
2019-03-25T23:25:35.826Z,61.01
2019-03-25T23:28:08.444Z,61.51
2019-03-25T23:30:41.678Z,60.88
2019-03-25T23:33:13.542Z,60.92
2019-03-25T23:35:47.340Z,60.88
2019-03-25T23:38:19.185Z,61.17
2019-03-25T23:40:51.716Z,60.73
2019-03-25T23:43:38.657Z,60.30
2019-03-25T23:46:10.448Z,61.47
2019-03-25T23:48:45.281Z,61.69
2019-03-25T23:51:17.717Z,62.19
2019-03-25T23:53:53.359Z,63.02
2019-03-25T23:56:28.901Z,63.72
2019-03-25T23:59:03.988Z,64.19
